Time;durP1;ratioP1;P1;durP2;ratioP2;P2;SDS_P1;SDS_P2;PMS_P1;PMS_P2;Temp;Humidity;BMP_temperature;BMP_pressure;BME280_temperature;BME280_humidity;BME280_pressure;Samples;Min_cycle;Max_cycle;Signal;HPM_P1;HPM_P2
2023/07/02 00:00:21;;;;;;;3.53;2.70;;;;;;;-145.69;100.00;52228.53;5074432;28;20593;-87
2023/07/02 00:02:53;;;;;;;4.55;2.22;;;;;;;-145.69;100.00;52230.50;5073931;28;20608;-88
2023/07/02 00:05:20;;;;;;;3.05;2.28;;;;;;;-145.69;100.00;52210.72;5073877;28;20199;-86
2023/07/02 00:07:46;;;;;;;4.22;2.58;;;;;;;-145.69;100.00;52218.63;5073795;28;20282;-86
2023/07/02 00:10:14;;;;;;;3.72;2.20;;;;;;;-145.69;100.00;52200.81;5074046;28;20650;-85
2023/07/02 00:12:41;;;;;;;3.28;2.50;;;;;;;-145.69;100.00;52232.50;5073684;28;20191;-85
2023/07/02 00:15:08;;;;;;;9.07;2.90;;;;;;;-145.69;100.00;52238.44;5073607;28;20231;-86
2023/07/02 00:17:39;;;;;;;6.82;2.67;;;;;;;-145.69;100.00;52208.72;5073626;28;20202;-86
2023/07/02 00:20:14;;;;;;;3.53;2.47;;;;;;;-145.69;100.00;52236.44;5074162;28;20270;-86
2023/07/02 00:22:45;;;;;;;2.95;2.33;;;;;;;-145.69;100.00;52246.34;5073870;28;20202;-87
2023/07/02 00:25:16;;;;;;;3.83;2.55;;;;;;;-145.69;100.00;52212.69;5073980;28;20203;-86
2023/07/02 00:27:43;;;;;;;4.18;2.30;;;;;;;-145.69;100.00;52224.56;5073770;28;20199;-87
2023/07/02 00:30:10;;;;;;;3.78;2.17;;;;;;;-145.69;100.00;52224.56;5073677;28;20255;-86
2023/07/02 00:32:38;;;;;;;4.72;2.83;;;;;;;-145.69;100.00;52222.59;5073808;28;20608;-86
2023/07/02 00:35:08;;;;;;;7.78;2.83;;;;;;;-145.69;100.00;52230.50;5073254;28;20233;-86
2023/07/02 00:37:37;;;;;;;4.45;2.50;;;;;;;-145.69;100.00;52212.69;5073436;28;20194;-86
2023/07/02 00:40:09;;;;;;;3.20;2.38;;;;;;;-145.69;100.00;52222.59;5069893;28;20204;-86
2023/07/02 00:42:37;;;;;;;6.20;2.55;;;;;;;-145.69;100.00;52226.53;5060788;28;20190;-85
2023/07/02 00:45:09;;;;;;;3.00;2.50;;;;;;;-145.69;100.00;52204.75;5073233;28;20210;-85
2023/07/02 00:47:41;;;;;;;4.32;3.00;;;;;;;-145.69;100.00;52250.31;5073309;28;20198;-86
2023/07/02 00:50:09;;;;;;;4.18;2.60;;;;;;;-145.69;100.00;52238.44;5073093;28;20262;-86
2023/07/02 00:52:37;;;;;;;3.75;2.47;;;;;;;-145.69;100.00;52220.59;5073080;28;20203;-85
2023/07/02 00:55:04;;;;;;;3.25;2.42;;;;;;;-145.69;100.00;52228.53;5072843;28;20227;-85
2023/07/02 00:57:32;;;;;;;4.65;2.60;;;;;;;-145.69;100.00;52208.72;5073248;28;20867;-86
2023/07/02 01:00:03;;;;;;;4.90;2.63;;;;;;;-145.69;100.00;52238.44;5073490;28;20347;-85
2023/07/02 01:02:32;;;;;;;3.88;2.55;;;;;;;-145.69;100.00;52218.63;5073159;28;20198;-86
2023/07/02 01:05:02;;;;;;;5.72;2.65;;;;;;;-145.69;100.00;52206.75;5073537;28;20206;-87
2023/07/02 01:07:28;;;;;;;4.57;2.70;;;;;;;-145.69;100.00;52256.25;5073320;28;20202;-87
2023/07/02 01:09:55;;;;;;;6.88;2.58;;;;;;;-145.69;100.00;52206.75;5073141;28;20207;-86
2023/07/02 01:12:22;;;;;;;6.25;2.80;;;;;;;-145.69;100.00;52270.13;5072679;28;20199;-86
2023/07/02 01:14:52;;;;;;;4.15;3.05;;;;;;;-145.69;100.00;52234.47;5073125;28;20676;-87
2023/07/02 01:17:21;;;;;;;5.53;2.85;;;;;;;-145.69;100.00;52244.38;5073627;28;20281;-88
2023/07/02 01:19:53;;;;;;;3.92;2.70;;;;;;;-145.69;100.00;52210.72;5072940;28;20661;-87
2023/07/02 01:22:21;;;;;;;4.97;2.78;;;;;;;-145.69;100.00;52254.28;5073195;28;20198;-85
2023/07/02 01:24:48;;;;;;;3.15;2.42;;;;;;;-145.69;100.00;52234.47;5072868;28;20202;-86
2023/07/02 01:27:15;;;;;;;8.18;2.70;;;;;;;-145.69;100.00;52206.75;5072681;28;20199;-86
2023/07/02 01:29:46;;;;;;;7.85;2.97;;;;;;;-145.69;100.00;52238.44;5072759;28;20655;-86
2023/07/02 01:32:19;;;;;;;4.60;2.97;;;;;;;-145.69;100.00;52254.28;5072642;28;20289;-87
2023/07/02 01:34:54;;;;;;;3.53;2.60;;;;;;;-145.69;100.00;52244.38;5072884;28;20229;-86
2023/07/02 01:37:26;;;;;;;4.78;2.88;;;;;;;-145.69;100.00;52250.31;5071183;28;20194;-86
2023/07/02 01:39:52;;;;;;;6.20;2.80;;;;;;;-145.69;100.00;52250.31;5072928;28;20688;-86
2023/07/02 01:42:20;;;;;;;6.22;3.03;;;;;;;-145.69;100.00;52242.38;5072902;28;20241;-86
2023/07/02 01:44:52;;;;;;;4.50;2.80;;;;;;;-145.69;100.00;52250.31;5072951;28;20237;-87
2023/07/02 01:47:34;;;;;;;4.18;2.70;;;;;;;-145.69;100.00;52240.41;5072944;28;20658;-87
2023/07/02 01:50:06;;;;;;;4.13;2.83;;;;;;;-145.69;100.00;52270.13;5072582;28;20227;-87
2023/07/02 01:52:33;;;;;;;4.45;2.97;;;;;;;-145.69;100.00;52238.44;5072934;28;20565;-87
2023/07/02 01:55:01;;;;;;;8.90;3.55;;;;;;;-145.69;100.00;52226.53;5072805;28;20258;-87
2023/07/02 01:57:27;;;;;;;4.80;3.33;;;;;;;-145.69;100.00;52238.44;5073139;28;20240;-87
2023/07/02 01:59:54;;;;;;;8.27;3.08;;;;;;;-145.69;100.00;52282.00;5076172;28;20549;-86
2023/07/02 02:02:20;;;;;;;4.15;3.00;;;;;;;-145.69;100.00;52270.13;5076134;28;20198;-87
2023/07/02 02:04:46;;;;;;;6.80;3.65;;;;;;;-145.69;100.00;52240.41;5076389;28;20206;-86
2023/07/02 02:07:14;;;;;;;4.57;3.10;;;;;;;-145.69;100.00;52238.44;5076291;28;20214;-86
2023/07/02 02:09:41;;;;;;;4.65;3.22;;;;;;;-145.69;100.00;52256.25;5075875;28;20195;-86
2023/07/02 02:12:08;;;;;;;8.80;3.20;;;;;;;-145.69;100.00;52278.03;5075723;28;20199;-85
2023/07/02 02:14:34;;;;;;;3.30;2.70;;;;;;;-145.69;100.00;52274.06;5075755;28;20249;-85
2023/07/02 02:17:01;;;;;;;4.38;3.17;;;;;;;-145.69;100.00;52248.34;5074474;28;20783;-85
2023/07/02 02:19:27;;;;;;;7.40;3.05;;;;;;;-145.69;100.00;52238.44;5075892;28;20256;-86
2023/07/02 02:21:54;;;;;;;3.90;3.00;;;;;;;-145.69;100.00;52276.06;5075365;28;20198;-85
2023/07/02 02:24:22;;;;;;;5.20;3.10;;;;;;;-145.69;100.00;52228.53;5075688;28;20206;-86
2023/07/02 02:26:49;;;;;;;5.78;3.30;;;;;;;-145.69;100.00;52230.50;5075011;28;20194;-85
2023/07/02 02:29:15;;;;;;;5.22;3.35;;;;;;;-145.69;100.00;52240.41;5074280;28;20260;-85
2023/07/02 02:31:43;;;;;;;6.82;3.13;;;;;;;-145.69;100.00;52258.22;5075773;28;20199;-86
2023/07/02 02:34:09;;;;;;;6.68;3.42;;;;;;;-145.69;100.00;52258.22;5075871;28;20248;-86
2023/07/02 02:36:36;;;;;;;3.88;3.00;;;;;;;-145.69;100.00;52238.44;5075551;28;20285;-86
2023/07/02 02:39:02;;;;;;;7.10;3.58;;;;;;;-145.69;100.00;52260.22;5071578;28;20198;-85
2023/07/02 02:41:30;;;;;;;6.32;3.40;;;;;;;-145.69;100.00;52254.28;5075213;28;20286;-86
2023/07/02 02:43:57;;;;;;;6.13;3.03;;;;;;;-145.69;100.00;52289.91;5073973;28;20686;-85
2023/07/02 02:46:24;;;;;;;4.05;2.83;;;;;;;-145.69;100.00;52256.25;5075359;28;20199;-85
2023/07/02 02:48:51;;;;;;;8.13;3.13;;;;;;;-145.69;100.00;52268.13;5075148;28;20199;-85
2023/07/02 02:51:18;;;;;;;5.38;3.00;;;;;;;-145.69;100.00;52285.97;5074763;28;20237;-85
2023/07/02 02:53:44;;;;;;;6.43;3.13;;;;;;;-145.69;100.00;52256.25;5074884;28;20206;-87
2023/07/02 02:56:11;;;;;;;5.43;3.50;;;;;;;-145.69;100.00;52272.09;5074841;28;20227;-86
2023/07/02 02:58:38;;;;;;;5.40;3.60;;;;;;;-145.69;100.00;52250.31;5074429;28;20206;-86
2023/07/02 03:01:10;;;;;;;4.97;3.13;;;;;;;-145.69;100.00;52258.22;5074856;28;20198;-85
2023/07/02 03:03:38;;;;;;;5.75;3.22;;;;;;;-145.69;100.00;52270.13;5074832;28;20650;-86
2023/07/02 03:06:05;;;;;;;6.50;3.65;;;;;;;-145.69;100.00;52276.06;5074579;28;20204;-86
2023/07/02 03:08:32;;;;;;;6.88;3.30;;;;;;;-145.69;100.00;52285.97;5075243;28;20195;-86
2023/07/02 03:10:58;;;;;;;9.48;3.75;;;;;;;-145.69;100.00;52236.44;5074976;28;20213;-86
2023/07/02 03:13:25;;;;;;;9.65;3.85;;;;;;;-145.69;100.00;52248.34;5074812;28;20205;-85
2023/07/02 03:16:03;;;;;;;5.65;3.70;;;;;;;-145.69;100.00;52268.13;5074443;28;20237;-86
2023/07/02 03:18:30;;;;;;;6.05;3.80;;;;;;;-145.69;100.00;52287.94;5074792;28;20259;-86
2023/07/02 03:20:56;;;;;;;10.90;4.28;;;;;;;-145.69;100.00;52270.13;5074595;28;20632;-84
2023/07/02 03:23:23;;;;;;;5.35;3.47;;;;;;;-145.69;100.00;52276.06;5074402;28;20195;-85
2023/07/02 03:25:50;;;;;;;8.00;3.70;;;;;;;-145.69;100.00;52258.22;5074637;28;20199;-86
2023/07/02 03:28:16;;;;;;;8.20;4.30;;;;;;;-145.69;100.00;52252.28;5074955;28;20199;-86
2023/07/02 03:30:42;;;;;;;6.88;3.92;;;;;;;-145.69;100.00;52248.34;5074493;28;20198;-87
2023/07/02 03:33:10;;;;;;;8.38;4.70;;;;;;;-145.69;100.00;52282.00;5074364;28;20206;-85
2023/07/02 03:35:37;;;;;;;7.18;3.97;;;;;;;-145.69;100.00;52270.13;5074339;28;20238;-86
2023/07/02 03:38:04;;;;;;;7.53;4.40;;;;;;;-145.69;100.00;52262.19;5070356;28;20210;-87
2023/07/02 03:40:30;;;;;;;4.90;3.60;;;;;;;-145.69;100.00;52285.97;5074424;28;20199;-87
2023/07/02 03:42:57;;;;;;;7.28;4.20;;;;;;;-145.69;100.00;52272.09;5074567;28;20206;-87
2023/07/02 03:45:23;;;;;;;8.35;4.25;;;;;;;-145.69;100.00;52282.00;5074238;28;20199;-86
2023/07/02 03:47:50;;;;;;;6.20;4.00;;;;;;;-145.69;100.00;52262.19;5074071;28;20202;-86
2023/07/02 03:50:18;;;;;;;8.57;4.47;;;;;;;-145.69;100.00;52262.19;5073727;28;20249;-87
2023/07/02 03:52:44;;;;;;;6.20;3.78;;;;;;;-145.69;100.00;52289.91;5074298;28;20272;-87
2023/07/02 03:55:11;;;;;;;5.82;3.83;;;;;;;-145.69;100.00;52278.03;5074214;28;20226;-86
2023/07/02 03:57:37;;;;;;;6.10;3.75;;;;;;;-145.69;100.00;52278.03;5074010;28;20689;-87
2023/07/02 04:00:05;;;;;;;8.60;4.00;;;;;;;-145.69;100.00;52264.16;5074006;28;20210;-87
2023/07/02 04:02:32;;;;;;;7.55;3.90;;;;;;;-145.69;100.00;52258.22;5074056;28;20674;-86
2023/07/02 04:04:58;;;;;;;6.13;3.47;;;;;;;-145.69;100.00;52289.91;5073764;28;20199;-86
2023/07/02 04:07:26;;;;;;;9.35;3.95;;;;;;;-145.69;100.00;52258.22;5073678;28;20612;-87
2023/07/02 04:09:53;;;;;;;5.38;3.60;;;;;;;-145.69;100.00;52270.13;5073802;28;20198;-86
2023/07/02 04:12:19;;;;;;;5.07;3.60;;;;;;;-145.69;100.00;52276.06;5074056;28;20201;-86
2023/07/02 04:14:46;;;;;;;5.50;3.42;;;;;;;-145.69;100.00;52266.16;5073672;28;20554;-84
2023/07/02 04:17:13;;;;;;;5.55;3.70;;;;;;;-145.69;100.00;52278.03;5073441;28;20197;-86
2023/07/02 04:19:39;;;;;;;7.05;3.38;;;;;;;-145.69;100.00;52270.13;5073694;28;20202;-86
2023/07/02 04:22:06;;;;;;;7.45;3.55;;;;;;;-145.69;100.00;52289.91;5072291;28;20221;-85
2023/07/02 04:24:34;;;;;;;6.22;3.55;;;;;;;-145.69;100.00;52262.19;5073575;28;20207;-85
2023/07/02 04:27:01;;;;;;;7.70;3.53;;;;;;;-145.69;100.00;52270.13;5073407;28;20549;-87
2023/07/02 04:29:27;;;;;;;6.70;3.67;;;;;;;-145.69;100.00;52270.13;5073536;28;20205;-81
2023/07/02 04:31:54;;;;;;;10.35;3.45;;;;;;;-145.69;100.00;52285.97;5073147;28;20690;-85
2023/07/02 04:34:21;;;;;;;6.47;3.67;;;;;;;-145.69;100.00;52266.16;5073421;28;20206;-86
2023/07/02 04:36:48;;;;;;;5.95;3.47;;;;;;;-145.69;100.00;52278.03;5073720;28;20352;-85
2023/07/02 04:39:15;;;;;;;8.93;3.90;;;;;;;-145.69;100.00;52274.06;5073522;28;20278;-86
2023/07/02 04:41:43;;;;;;;6.20;3.35;;;;;;;-145.69;100.00;52260.22;5073538;28;20191;-86
2023/07/02 04:44:10;;;;;;;13.23;3.88;;;;;;;-145.69;100.00;52307.75;5058096;28;20551;-86
2023/07/02 04:46:37;;;;;;;12.35;3.60;;;;;;;-145.69;100.00;52285.97;5053480;28;20209;-84
2023/07/02 04:49:03;;;;;;;8.52;3.60;;;;;;;-145.69;100.00;52289.91;5073223;28;20253;-85
2023/07/02 04:51:30;;;;;;;7.78;3.70;;;;;;;-145.69;100.00;52262.19;5073117;28;20655;-86
2023/07/02 04:53:56;;;;;;;6.68;3.53;;;;;;;-145.69;100.00;52266.16;5071875;28;20194;-86
2023/07/02 04:56:23;;;;;;;7.32;3.45;;;;;;;-145.69;100.00;52260.22;5071584;28;20226;-86
2023/07/02 04:58:51;;;;;;;7.43;3.15;;;;;;;-145.69;100.00;52258.22;5072946;28;20205;-85
2023/07/02 05:01:17;;;;;;;9.32;3.53;;;;;;;-145.69;100.00;52262.19;5073092;28;20221;-85
2023/07/02 05:03:44;;;;;;;8.07;4.07;;;;;;;-145.69;100.00;52258.22;5073377;28;20214;-86
2023/07/02 05:06:10;;;;;;;8.90;3.65;;;;;;;-145.69;100.00;52282.00;5073035;28;20205;-85
2023/07/02 05:08:37;;;;;;;5.53;3.40;;;;;;;-145.69;100.00;52260.22;5072603;28;20206;-87
2023/07/02 05:11:03;;;;;;;8.30;3.63;;;;;;;-145.69;100.00;52266.16;5073226;28;20608;-85
2023/07/02 05:13:30;;;;;;;10.27;3.72;;;;;;;-145.69;100.00;52274.06;5072844;28;20199;-85
2023/07/02 05:15:58;;;;;;;16.30;4.63;;;;;;;-145.69;100.00;52234.47;5072652;28;20225;-85
2023/07/02 05:18:24;;;;;;;11.77;4.25;;;;;;;-145.69;100.00;52238.44;5071659;28;20198;-86
2023/07/02 05:20:51;;;;;;;11.57;4.00;;;;;;;-145.69;100.00;52238.44;5073187;28;20281;-87
2023/07/02 05:23:17;;;;;;;7.05;4.07;;;;;;;-145.69;100.00;52230.50;5073034;28;20199;-86
2023/07/02 05:25:45;;;;;;;7.75;4.00;;;;;;;-145.69;100.00;52262.19;5073273;28;20207;-87
2023/07/02 05:28:12;;;;;;;7.30;3.88;;;;;;;-145.69;100.00;52234.47;5072586;28;20197;-85
2023/07/02 05:30:39;;;;;;;16.00;4.20;;;;;;;-145.69;100.00;52240.41;5072724;28;20221;-85
2023/07/02 05:33:06;;;;;;;10.95;4.05;;;;;;;-145.69;100.00;52214.66;5074041;28;20199;-85
2023/07/02 05:35:34;;;;;;;14.48;4.15;;;;;;;-145.69;100.00;52248.34;5076375;28;20218;-85
2023/07/02 05:38:01;;;;;;;6.43;3.72;;;;;;;-145.69;100.00;52238.44;5076120;28;20199;-85
2023/07/02 05:40:27;;;;;;;7.35;3.80;;;;;;;-145.69;100.00;52252.28;5076337;28;20565;-86
2023/07/02 05:42:54;;;;;;;8.05;3.92;;;;;;;-145.69;100.00;52240.41;5076397;28;20206;-88
2023/07/02 05:45:20;;;;;;;10.68;4.40;;;;;;;-145.69;100.00;52222.59;5076088;28;20199;-85
2023/07/02 05:47:47;;;;;;;12.50;3.88;;;;;;;-145.69;100.00;52224.56;5075758;28;20191;-86
2023/07/02 05:50:15;;;;;;;9.75;3.78;;;;;;;-145.69;100.00;52258.22;5075983;28;20223;-85
2023/07/02 05:52:41;;;;;;;12.85;4.20;;;;;;;-145.69;100.00;52270.13;5076557;28;20199;-86
2023/07/02 05:55:12;;;;;;;8.05;3.70;;;;;;;-145.69;100.00;52234.47;5075604;28;20226;-85
2023/07/02 05:57:39;;;;;;;10.60;4.05;;;;;;;-145.69;100.00;52212.69;5075882;28;20209;-86
2023/07/02 06:00:06;;;;;;;9.48;3.90;;;;;;;-145.69;100.00;52248.34;5075093;28;20286;-85
2023/07/02 06:02:33;;;;;;;10.95;4.35;;;;;;;-145.69;100.00;52266.16;5076535;28;20195;-87
2023/07/02 06:05:02;;;;;;;10.02;4.05;;;;;;;-145.69;100.00;52246.34;5076279;28;20653;-86
2023/07/02 06:07:30;;;;;;;12.70;4.43;;;;;;;-145.69;100.00;52214.66;5076150;28;20207;-86
2023/07/02 06:09:59;;;;;;;7.25;3.90;;;;;;;-145.69;100.00;52198.81;5075605;28;20209;-86
2023/07/02 06:12:29;;;;;;;11.00;4.75;;;;;;;-145.69;100.00;52216.66;5074780;28;20199;-86
2023/07/02 06:14:56;;;;;;;14.00;4.68;;;;;;;-145.69;100.00;52236.44;5073753;28;20202;-86
2023/07/02 06:17:24;;;;;;;10.02;4.30;;;;;;;-145.69;100.00;52236.44;5074797;28;20199;-87
2023/07/02 06:19:51;;;;;;;13.18;4.50;;;;;;;-145.69;100.00;52222.59;5076118;28;20265;-86
2023/07/02 06:22:17;;;;;;;11.52;5.32;;;;;;;-145.69;100.00;52220.59;5076007;28;20205;-87
2023/07/02 06:24:45;;;;;;;13.00;4.40;;;;;;;-145.69;100.00;52252.28;5075196;28;20673;-86
2023/07/02 06:27:12;;;;;;;13.43;4.70;;;;;;;-145.69;100.00;52202.78;5074297;28;20213;-87
2023/07/02 06:29:38;;;;;;;12.23;4.95;;;;;;;-145.69;100.00;52228.53;5074166;28;20199;-86
2023/07/02 06:32:06;;;;;;;12.43;5.68;;;;;;;-145.69;100.00;52214.66;5074400;28;20199;-86
2023/07/02 06:34:36;;;;;;;16.58;5.78;;;;;;;-145.69;100.00;52230.50;5073092;28;20210;-85
2023/07/02 06:37:02;;;;;;;14.63;5.85;;;;;;;-145.69;100.00;52222.59;5075011;28;20351;-87
2023/07/02 06:39:32;;;;;;;16.83;6.15;;;;;;;-145.69;100.00;52214.66;5074621;28;20223;-85
2023/07/02 06:42:00;;;;;;;14.02;5.38;;;;;;;-145.69;100.00;52179.03;5075449;28;20209;-85
2023/07/02 06:44:26;;;;;;;11.90;5.65;;;;;;;-145.69;100.00;52226.53;5070847;28;20206;-86
2023/07/02 06:46:53;;;;;;;18.13;6.20;;;;;;;-145.69;100.00;52206.75;5075546;28;20557;-86
2023/07/02 06:49:19;;;;;;;12.88;5.68;;;;;;;-145.69;100.00;52206.75;5075449;28;20645;-86
2023/07/02 06:51:46;;;;;;;14.38;5.78;;;;;;;-145.69;100.00;52194.88;5074951;28;20241;-86
2023/07/02 06:54:13;;;;;;;19.55;6.63;;;;;;;-145.69;100.00;52192.88;5075019;28;20230;-85
2023/07/02 06:56:40;;;;;;;12.18;5.90;;;;;;;-145.69;100.00;52202.78;5075204;28;20276;-86
2023/07/02 06:59:19;;;;;;;14.55;6.07;;;;;;;-145.69;100.00;52194.88;5075099;28;20215;-86
2023/07/02 07:01:46;;;;;;;13.75;6.22;;;;;;;-145.69;100.00;52171.09;5073813;28;20206;-86
2023/07/02 07:04:13;;;;;;;13.10;6.38;;;;;;;-145.69;100.00;52208.72;5074841;28;20285;-87
2023/07/02 07:06:42;;;;;;;16.20;7.10;;;;;;;-145.69;100.00;52202.78;5074927;28;20254;-86
2023/07/02 07:09:09;;;;;;;13.38;6.53;;;;;;;-145.69;100.00;52171.09;5074640;28;20203;-85
2023/07/02 07:11:36;;;;;;;16.75;7.28;;;;;;;-145.69;100.00;52226.53;5074717;28;20658;-86
2023/07/02 07:14:03;;;;;;;13.50;7.13;;;;;;;-145.69;100.00;52179.03;5074877;28;20205;-86
2023/07/02 07:16:31;;;;;;;16.58;8.30;;;;;;;-145.69;100.00;52214.66;5074697;28;20246;-87
2023/07/02 07:18:57;;;;;;;27.48;9.15;;;;;;;-145.69;100.00;52181.00;5074776;28;20207;-87
2023/07/02 07:21:24;;;;;;;20.80;8.73;;;;;;;-145.69;100.00;52198.81;5074861;28;20210;-87
2023/07/02 07:24:00;;;;;;;26.73;9.45;;;;;;;-145.69;100.00;52198.81;5074712;28;20201;-86
2023/07/02 07:26:26;;;;;;;20.92;8.80;;;;;;;-145.69;100.00;52226.53;5074364;28;20569;-85
2023/07/02 07:28:54;;;;;;;21.40;9.35;;;;;;;-145.69;100.00;52190.91;5074373;28;20202;-86
2023/07/02 07:31:20;;;;;;;22.20;8.95;;;;;;;-145.69;100.00;52232.50;5074466;28;20205;-86
2023/07/02 07:33:48;;;;;;;18.85;9.32;;;;;;;-145.69;96.86;52190.91;5074421;28;20210;-86
2023/07/02 07:36:15;;;;;;;35.67;10.18;;;;;;;-145.69;93.68;52200.81;5074488;28;20234;-87
2023/07/02 07:38:44;;;;;;;24.60;9.88;;;;;;;-145.69;91.01;52184.97;5074324;28;20202;-86
2023/07/02 07:41:10;;;;;;;19.90;9.23;;;;;;;-145.69;91.52;52155.25;5074074;28;20209;-86
2023/07/02 07:43:40;;;;;;;21.80;9.90;;;;;;;-145.69;93.55;52173.09;5074169;28;20206;-86
2023/07/02 07:46:06;;;;;;;23.75;9.93;;;;;;;-145.69;92.99;52190.91;5074174;28;20671;-86
2023/07/02 07:48:35;;;;;;;22.83;9.10;;;;;;;-145.69;94.40;52188.91;5074319;28;20199;-87
2023/07/02 07:51:03;;;;;;;19.83;9.05;;;;;;;-145.69;95.05;52186.94;5073664;28;20245;-86
2023/07/02 07:53:30;;;;;;;21.30;9.50;;;;;;;-145.69;96.69;52202.78;5073909;28;20205;-86
2023/07/02 07:55:56;;;;;;;19.27;9.38;;;;;;;-145.69;97.18;52206.75;5073071;28;20230;-86
2023/07/02 07:58:24;;;;;;;26.13;11.07;;;;;;;-145.69;95.33;52200.81;5073046;28;20442;-87
2023/07/02 08:00:52;;;;;;;21.83;11.30;;;;;;;-145.69;90.59;52161.19;5074065;28;20206;-85
2023/07/02 08:03:22;;;;;;;26.60;11.13;;;;;;;-145.69;88.58;52167.13;5074021;28;20201;-86
2023/07/02 08:05:48;;;;;;;25.33;11.07;;;;;;;-145.69;89.34;52200.81;5073705;28;20230;-87
2023/07/02 08:08:16;;;;;;;27.95;12.20;;;;;;;-145.69;86.87;52222.59;5073890;28;20534;-86
2023/07/02 08:10:43;;;;;;;24.38;11.18;;;;;;;-145.69;76.52;52198.81;5073436;28;20207;-85
2023/07/02 08:13:12;;;;;;;30.35;12.93;;;;;;;-145.69;77.45;52208.72;5073634;28;20206;-86
2023/07/02 08:15:38;;;;;;;28.50;13.65;;;;;;;-145.69;74.70;52175.06;5073346;28;20226;-87
2023/07/02 08:18:07;;;;;;;31.13;13.93;;;;;;;-145.69;75.83;52175.06;5073582;28;20301;-85
2023/07/02 08:20:33;;;;;;;32.78;14.38;;;;;;;-145.69;79.31;52194.88;5073422;28;20199;-86
2023/07/02 08:23:00;;;;;;;32.53;14.10;;;;;;;-145.69;72.94;52179.03;5072373;28;20198;-86
2023/07/02 08:25:28;;;;;;;28.90;14.07;;;;;;;-145.69;68.74;52206.75;5073154;28;20203;-87
2023/07/02 08:27:56;;;;;;;32.42;13.75;;;;;;;-145.69;71.96;52218.63;5073805;28;20203;-87
2023/07/02 08:30:23;;;;;;;27.45;13.18;;;;;;;-145.69;77.52;52184.97;5073445;28;20206;-86
2023/07/02 08:32:50;;;;;;;31.83;13.65;;;;;;;-145.69;68.89;52190.91;5072263;28;20203;-86
2023/07/02 08:35:16;;;;;;;27.75;12.70;;;;;;;-145.69;70.03;52173.09;5073677;28;20289;-85
2023/07/02 08:37:43;;;;;;;30.70;14.18;;;;;;;-145.69;66.87;52171.09;5073098;28;20317;-86
2023/07/02 08:40:20;;;;;;;30.83;13.30;;;;;;;-145.69;66.16;52171.09;5073408;28;20203;-86
2023/07/02 08:42:50;;;;;;;30.60;13.45;;;;;;;-145.69;73.74;52171.09;5073530;28;20202;-87
2023/07/02 08:45:17;;;;;;;32.53;14.32;;;;;;;-145.69;74.31;52196.84;5073274;28;20252;-85
2023/07/02 08:47:44;;;;;;;27.60;13.82;;;;;;;-145.69;65.88;52171.09;5073113;28;20226;-87
2023/07/02 08:50:12;;;;;;;30.10;14.27;;;;;;;-145.69;70.48;52182.97;5072947;28;20238;-86
2023/07/02 08:52:38;;;;;;;33.63;14.60;;;;;;;-145.69;65.38;52202.78;5071393;28;20203;-85
2023/07/02 08:55:08;;;;;;;30.80;14.55;;;;;;;-145.69;70.30;52167.13;5053806;28;20210;-86
2023/07/02 08:57:35;;;;;;;30.52;14.02;;;;;;;-145.69;66.71;52151.28;5052941;28;20233;-86
2023/07/02 09:00:09;;;;;;;26.83;14.02;;;;;;;-145.69;63.60;52192.88;5053163;28;20252;-87
2023/07/02 09:02:36;;;;;;;32.10;14.90;;;;;;;-145.69;61.73;52202.78;5053073;28;20203;-87
2023/07/02 09:05:03;;;;;;;30.13;14.15;;;;;;;-145.69;60.36;52208.72;5052898;28;20206;-87
2023/07/02 09:07:30;;;;;;;32.10;15.32;;;;;;;-145.69;64.98;52155.25;5064126;28;20187;-86
2023/07/02 09:09:59;;;;;;;29.55;14.60;;;;;;;-145.69;60.93;52153.28;5077433;28;20545;-87
2023/07/02 09:12:29;;;;;;;32.17;14.68;;;;;;;-145.69;61.87;52175.06;5077292;28;20195;-86
2023/07/02 09:14:57;;;;;;;31.98;14.73;;;;;;;-145.69;55.82;52179.03;5076950;28;20198;-85
2023/07/02 09:17:30;;;;;;;29.50;13.90;;;;;;;-145.69;59.53;52167.13;5076611;28;20222;-85
2023/07/02 09:19:58;;;;;;;35.55;15.43;;;;;;;-145.69;59.09;52192.88;5076921;28;20194;-86
2023/07/02 09:22:24;;;;;;;29.17;14.05;;;;;;;-145.69;57.35;52186.94;5076783;28;20194;-86
2023/07/02 09:24:58;;;;;;;31.90;14.50;;;;;;;-145.69;58.78;52159.22;5076907;28;20749;-85
2023/07/02 09:27:38;;;;;;;30.30;15.15;;;;;;;-145.69;58.02;52147.34;5076759;28;20561;-86
2023/07/02 09:30:09;;;;;;;31.42;15.10;;;;;;;-145.69;56.95;52147.34;5076722;28;20259;-87
2023/07/02 09:32:37;;;;;;;30.95;14.43;;;;;;;-145.69;52.49;52192.88;5076807;28;20632;-86
2023/07/02 09:35:05;;;;;;;32.92;14.50;;;;;;;-145.69;56.61;52173.09;5076757;28;20205;-86
2023/07/02 09:37:32;;;;;;;32.97;15.65;;;;;;;-145.69;55.27;52163.19;5076579;28;20223;-88
2023/07/02 09:40:01;;;;;;;30.73;14.57;;;;;;;-145.69;58.25;52163.19;5076665;28;20211;-87
2023/07/02 09:42:29;;;;;;;31.63;15.23;;;;;;;-145.69;53.07;52159.22;5076549;28;20199;-87
2023/07/02 09:44:56;;;;;;;30.13;15.13;;;;;;;-145.69;58.80;52155.25;5076692;28;20210;-86
2023/07/02 09:47:24;;;;;;;28.50;13.63;;;;;;;-145.69;54.41;52159.22;5076679;28;20301;-88
2023/07/02 09:50:00;;;;;;;31.83;14.88;;;;;;;-145.69;58.19;52161.19;5076381;28;20326;-86
2023/07/02 09:52:28;;;;;;;32.35;15.43;;;;;;;-145.69;55.49;52167.13;5076617;28;20202;-89
2023/07/02 09:54:54;;;;;;;33.53;14.52;;;;;;;-145.69;57.05;52151.28;5076528;28;20241;-87
2023/07/02 09:57:21;;;;;;;34.00;16.17;;;;;;;-145.69;58.71;52155.25;5076430;28;20279;-88
2023/07/02 09:59:48;;;;;;;32.15;15.18;;;;;;;-145.69;52.97;52135.47;5076231;28;20623;-88
2023/07/02 10:02:15;;;;;;;32.60;15.48;;;;;;;-145.69;52.57;52143.38;5075086;28;20237;-87
2023/07/02 10:04:42;;;;;;;37.40;15.45;;;;;;;-145.69;52.87;52155.25;5076289;28;20199;-86
2023/07/02 10:07:11;;;;;;;31.17;15.30;;;;;;;-145.69;59.55;52141.41;5076276;28;20286;-87
2023/07/02 10:09:39;;;;;;;30.30;14.23;;;;;;;-145.69;60.03;52135.47;5076303;28;20218;-87
2023/07/02 10:12:21;;;;;;;34.03;15.18;;;;;;;-145.69;59.18;52135.47;5076199;28;20199;-87
2023/07/02 10:14:52;;;;;;;30.80;13.73;;;;;;;-145.69;62.11;52149.31;5076156;28;20214;-88
2023/07/02 10:17:30;;;;;;;31.73;14.82;;;;;;;-145.69;64.81;52137.44;5076413;28;20230;-89
2023/07/02 10:19:58;;;;;;;31.58;14.48;;;;;;;-145.69;55.94;52147.34;5075689;28;20548;-88
2023/07/02 10:22:27;;;;;;;30.75;14.55;;;;;;;-145.69;51.11;52163.19;5076159;28;20209;-88
2023/07/02 10:24:56;;;;;;;27.60;14.52;;;;;;;-145.69;52.59;52149.31;5075821;28;20290;-87
2023/07/02 10:27:40;;;;;;;30.52;13.50;;;;;;;-145.69;55.07;52145.34;5075853;28;20240;-89
2023/07/02 10:30:11;;;;;;;28.00;13.77;;;;;;;-145.69;59.23;52123.56;5075829;28;20199;-88
2023/07/02 10:32:38;;;;;;;31.65;14.45;;;;;;;-145.69;54.23;52171.09;5076085;28;20198;-87
2023/07/02 10:35:18;;;;;;;28.77;13.85;;;;;;;-145.69;54.74;52135.47;5075966;28;20195;-89
2023/07/02 10:37:46;;;;;;;29.55;14.30;;;;;;;-145.69;52.79;52145.34;5075504;28;20244;-88
2023/07/02 10:40:16;;;;;;;28.55;13.45;;;;;;;-145.69;51.59;52153.28;5075869;28;20202;-87
2023/07/02 10:42:46;;;;;;;29.42;13.82;;;;;;;-145.69;58.40;52121.59;5075521;28;20658;-89
2023/07/02 10:45:13;;;;;;;36.53;13.40;;;;;;;-145.69;56.83;52123.56;5075759;28;20210;-88
2023/07/02 10:47:41;;;;;;;29.60;13.57;;;;;;;-145.69;50.31;52159.22;5075467;28;20202;-84
2023/07/02 10:50:15;;;;;;;28.40;13.00;;;;;;;-145.69;48.75;52123.56;5075310;28;20609;-85
2023/07/02 10:52:42;;;;;;;28.33;12.63;;;;;;;-145.69;49.59;52135.47;5075382;28;20205;-88
2023/07/02 10:55:10;;;;;;;27.15;12.68;;;;;;;-145.69;48.64;52151.28;5075421;28;20232;-86
2023/07/02 10:57:37;;;;;;;28.35;12.27;;;;;;;-145.69;49.33;52125.56;5075349;28;20226;-88
2023/07/02 11:00:08;;;;;;;21.95;11.73;;;;;;;-145.69;48.56;52115.66;5073289;28;20199;-87
2023/07/02 11:02:35;;;;;;;27.00;11.48;;;;;;;-145.69;49.46;52141.41;5054965;28;20659;-89
2023/07/02 11:05:02;;;;;;;24.15;10.73;;;;;;;-145.69;47.55;52143.38;5055085;28;20195;-87
2023/07/02 11:07:28;;;;;;;22.77;11.40;;;;;;;-145.69;47.32;52127.53;5055291;28;20674;-89